sensor_id;sensor_type;location;lat;lon;timestamp;P1;durP1;ratioP1;P2;durP2;ratioP2
23543;SDS011;11950;51.230;4.012;2022-09-09T00:01:36;3.58;;;1.48;;
23543;SDS011;11950;51.230;4.012;2022-09-09T00:04:27;3.50;;;1.45;;
23543;SDS011;11950;51.230;4.012;2022-09-09T00:07:07;6.47;;;1.60;;
23543;SDS011;11950;51.230;4.012;2022-09-09T00:09:40;3.88;;;1.77;;
23543;SDS011;11950;51.230;4.012;2022-09-09T00:12:40;5.38;;;1.67;;
23543;SDS011;11950;51.230;4.012;2022-09-09T00:15:22;4.03;;;1.77;;
23543;SDS011;11950;51.230;4.012;2022-09-09T00:18:10;4.30;;;1.90;;
23543;SDS011;11950;51.230;4.012;2022-09-09T00:23:20;7.40;;;1.80;;
23543;SDS011;11950;51.230;4.012;2022-09-09T00:31:38;5.88;;;1.95;;
23543;SDS011;11950;51.230;4.012;2022-09-09T00:34:14;5.07;;;1.83;;
23543;SDS011;11950;51.230;4.012;2022-09-09T00:36:42;3.58;;;2.08;;
23543;SDS011;11950;51.230;4.012;2022-09-09T00:39:13;8.15;;;2.33;;
23543;SDS011;11950;51.230;4.012;2022-09-09T00:42:18;4.40;;;1.95;;
23543;SDS011;11950;51.230;4.012;2022-09-09T00:47:39;6.10;;;1.90;;
23543;SDS011;11950;51.230;4.012;2022-09-09T00:52:44;4.00;;;1.85;;
23543;SDS011;11950;51.230;4.012;2022-09-09T00:58:27;9.18;;;1.88;;
23543;SDS011;11950;51.230;4.012;2022-09-09T01:00:58;3.03;;;1.65;;
23543;SDS011;11950;51.230;4.012;2022-09-09T01:03:47;2.85;;;1.60;;
23543;SDS011;11950;51.230;4.012;2022-09-09T01:06:22;7.88;;;1.80;;
23543;SDS011;11950;51.230;4.012;2022-09-09T01:14:48;6.55;;;1.52;;
23543;SDS011;11950;51.230;4.012;2022-09-09T01:17:20;2.80;;;1.48;;
23543;SDS011;11950;51.230;4.012;2022-09-09T01:26:18;7.53;;;1.25;;
23543;SDS011;11950;51.230;4.012;2022-09-09T01:28:53;5.75;;;1.55;;
23543;SDS011;11950;51.230;4.012;2022-09-09T01:31:31;7.15;;;1.77;;
23543;SDS011;11950;51.230;4.012;2022-09-09T01:34:02;4.72;;;1.40;;
23543;SDS011;11950;51.230;4.012;2022-09-09T01:37:16;5.93;;;1.55;;
23543;SDS011;11950;51.230;4.012;2022-09-09T01:39:27;3.72;;;1.60;;
23543;SDS011;11950;51.230;4.012;2022-09-09T01:42:00;5.68;;;1.30;;
23543;SDS011;11950;51.230;4.012;2022-09-09T01:44:27;3.67;;;1.20;;
23543;SDS011;11950;51.230;4.012;2022-09-09T01:46:55;3.28;;;1.10;;
23543;SDS011;11950;51.230;4.012;2022-09-09T01:49:22;4.40;;;1.55;;
23543;SDS011;11950;51.230;4.012;2022-09-09T01:51:50;4.65;;;1.38;;
23543;SDS011;11950;51.230;4.012;2022-09-09T01:54:26;5.47;;;1.23;;
23543;SDS011;11950;51.230;4.012;2022-09-09T02:08:41;5.50;;;1.35;;
23543;SDS011;11950;51.230;4.012;2022-09-09T02:11:14;5.47;;;1.20;;
23543;SDS011;11950;51.230;4.012;2022-09-09T02:13:47;4.75;;;1.20;;
23543;SDS011;11950;51.230;4.012;2022-09-09T02:19:18;6.45;;;1.10;;
23543;SDS011;11950;51.230;4.012;2022-09-09T02:22:06;2.15;;;1.00;;
23543;SDS011;11950;51.230;4.012;2022-09-09T02:24:35;3.25;;;1.02;;
23543;SDS011;11950;51.230;4.012;2022-09-09T02:27:18;3.60;;;1.00;;
23543;SDS011;11950;51.230;4.012;2022-09-09T02:29:47;2.38;;;1.00;;
23543;SDS011;11950;51.230;4.012;2022-09-09T02:32:18;3.17;;;1.00;;
23543;SDS011;11950;51.230;4.012;2022-09-09T02:34:47;4.85;;;0.93;;
23543;SDS011;11950;51.230;4.012;2022-09-09T02:37:16;4.72;;;1.40;;
23543;SDS011;11950;51.230;4.012;2022-09-09T02:39:48;6.55;;;1.15;;
23543;SDS011;11950;51.230;4.012;2022-09-09T02:42:18;3.00;;;1.05;;
23543;SDS011;11950;51.230;4.012;2022-09-09T02:44:45;4.72;;;1.05;;
23543;SDS011;11950;51.230;4.012;2022-09-09T02:52:38;4.50;;;1.00;;
23543;SDS011;11950;51.230;4.012;2022-09-09T02:58:06;4.05;;;1.00;;
23543;SDS011;11950;51.230;4.012;2022-09-09T03:00:37;3.67;;;1.00;;
23543;SDS011;11950;51.230;4.012;2022-09-09T03:03:05;3.97;;;1.33;;
23543;SDS011;11950;51.230;4.012;2022-09-09T03:05:34;4.68;;;1.20;;
23543;SDS011;11950;51.230;4.012;2022-09-09T03:08:02;6.10;;;1.00;;
23543;SDS011;11950;51.230;4.012;2022-09-09T03:10:29;5.72;;;1.10;;
23543;SDS011;11950;51.230;4.012;2022-09-09T03:12:57;7.32;;;0.98;;
23543;SDS011;11950;51.230;4.012;2022-09-09T03:15:26;6.97;;;1.73;;
23543;SDS011;11950;51.230;4.012;2022-09-09T03:17:57;5.18;;;0.93;;
23543;SDS011;11950;51.230;4.012;2022-09-09T03:20:25;4.75;;;1.10;;
23543;SDS011;11950;51.230;4.012;2022-09-09T03:22:53;5.93;;;0.93;;
23543;SDS011;11950;51.230;4.012;2022-09-09T03:25:20;4.70;;;0.90;;
23543;SDS011;11950;51.230;4.012;2022-09-09T03:27:48;4.32;;;1.10;;
23543;SDS011;11950;51.230;4.012;2022-09-09T03:30:15;3.92;;;0.93;;
23543;SDS011;11950;51.230;4.012;2022-09-09T03:32:42;8.73;;;1.20;;
23543;SDS011;11950;51.230;4.012;2022-09-09T03:35:08;2.75;;;0.80;;
23543;SDS011;11950;51.230;4.012;2022-09-09T03:37:34;5.43;;;0.90;;
23543;SDS011;11950;51.230;4.012;2022-09-09T03:40:01;4.28;;;1.38;;
23543;SDS011;11950;51.230;4.012;2022-09-09T03:42:28;7.75;;;1.23;;
23543;SDS011;11950;51.230;4.012;2022-09-09T03:44:56;4.72;;;0.90;;
23543;SDS011;11950;51.230;4.012;2022-09-09T03:47:25;4.85;;;0.88;;
23543;SDS011;11950;51.230;4.012;2022-09-09T03:49:57;4.03;;;0.88;;
23543;SDS011;11950;51.230;4.012;2022-09-09T03:52:23;6.20;;;1.10;;
23543;SDS011;11950;51.230;4.012;2022-09-09T03:54:52;7.28;;;1.10;;
23543;SDS011;11950;51.230;4.012;2022-09-09T03:57:19;5.22;;;1.00;;
23543;SDS011;11950;51.230;4.012;2022-09-09T03:59:46;4.80;;;1.10;;
23543;SDS011;11950;51.230;4.012;2022-09-09T04:02:12;10.98;;;1.58;;
23543;SDS011;11950;51.230;4.012;2022-09-09T04:04:39;4.22;;;0.95;;
23543;SDS011;11950;51.230;4.012;2022-09-09T04:07:05;7.35;;;1.63;;
23543;SDS011;11950;51.230;4.012;2022-09-09T04:09:32;4.55;;;0.95;;
23543;SDS011;11950;51.230;4.012;2022-09-09T04:12:00;4.88;;;0.93;;
23543;SDS011;11950;51.230;4.012;2022-09-09T04:14:26;4.40;;;1.08;;
23543;SDS011;11950;51.230;4.012;2022-09-09T04:16:55;3.40;;;1.10;;
23543;SDS011;11950;51.230;4.012;2022-09-09T04:19:22;8.25;;;1.00;;
23543;SDS011;11950;51.230;4.012;2022-09-09T04:21:49;7.05;;;0.80;;
23543;SDS011;11950;51.230;4.012;2022-09-09T04:24:17;6.13;;;1.30;;
23543;SDS011;11950;51.230;4.012;2022-09-09T04:26:44;5.68;;;1.30;;
23543;SDS011;11950;51.230;4.012;2022-09-09T04:29:12;8.18;;;1.08;;
23543;SDS011;11950;51.230;4.012;2022-09-09T04:31:39;2.10;;;0.90;;
23543;SDS011;11950;51.230;4.012;2022-09-09T04:34:08;7.97;;;1.25;;
23543;SDS011;11950;51.230;4.012;2022-09-09T04:36:35;5.30;;;1.00;;
23543;SDS011;11950;51.230;4.012;2022-09-09T04:39:04;5.38;;;1.08;;
23543;SDS011;11950;51.230;4.012;2022-09-09T04:41:30;9.27;;;1.40;;
23543;SDS011;11950;51.230;4.012;2022-09-09T04:43:58;3.35;;;0.98;;
23543;SDS011;11950;51.230;4.012;2022-09-09T04:46:25;7.10;;;1.20;;
23543;SDS011;11950;51.230;4.012;2022-09-09T04:48:51;7.65;;;1.25;;
23543;SDS011;11950;51.230;4.012;2022-09-09T04:51:18;6.32;;;1.20;;
23543;SDS011;11950;51.230;4.012;2022-09-09T04:53:47;5.10;;;1.30;;
23543;SDS011;11950;51.230;4.012;2022-09-09T04:56:16;6.50;;;1.10;;
23543;SDS011;11950;51.230;4.012;2022-09-09T04:58:52;2.92;;;1.30;;
23543;SDS011;11950;51.230;4.012;2022-09-09T05:01:21;8.32;;;1.30;;
23543;SDS011;11950;51.230;4.012;2022-09-09T05:03:50;4.25;;;1.20;;
23543;SDS011;11950;51.230;4.012;2022-09-09T05:06:21;5.25;;;1.30;;
23543;SDS011;11950;51.230;4.012;2022-09-09T05:08:52;6.68;;;1.17;;
23543;SDS011;11950;51.230;4.012;2022-09-09T05:11:24;4.90;;;1.17;;
23543;SDS011;11950;51.230;4.012;2022-09-09T05:13:55;8.85;;;1.35;;
23543;SDS011;11950;51.230;4.012;2022-09-09T05:16:22;4.03;;;1.40;;
23543;SDS011;11950;51.230;4.012;2022-09-09T05:18:49;6.00;;;1.20;;
23543;SDS011;11950;51.230;4.012;2022-09-09T05:21:20;8.70;;;1.40;;
23543;SDS011;11950;51.230;4.012;2022-09-09T05:23:49;7.13;;;1.38;;
23543;SDS011;11950;51.230;4.012;2022-09-09T05:26:19;5.80;;;1.20;;
23543;SDS011;11950;51.230;4.012;2022-09-09T05:28:48;6.57;;;1.30;;
23543;SDS011;11950;51.230;4.012;2022-09-09T05:31:15;6.93;;;1.40;;
23543;SDS011;11950;51.230;4.012;2022-09-09T05:33:45;9.93;;;1.40;;
23543;SDS011;11950;51.230;4.012;2022-09-09T05:36:14;7.07;;;1.33;;
23543;SDS011;11950;51.230;4.012;2022-09-09T05:38:47;7.28;;;1.35;;
23543;SDS011;11950;51.230;4.012;2022-09-09T05:41:15;9.90;;;1.52;;
23543;SDS011;11950;51.230;4.012;2022-09-09T05:43:43;7.15;;;1.42;;
23543;SDS011;11950;51.230;4.012;2022-09-09T05:46:12;7.47;;;1.50;;
23543;SDS011;11950;51.230;4.012;2022-09-09T05:48:41;8.73;;;1.23;;
23543;SDS011;11950;51.230;4.012;2022-09-09T05:51:09;9.57;;;1.50;;
23543;SDS011;11950;51.230;4.012;2022-09-09T05:53:41;8.77;;;1.70;;
23543;SDS011;11950;51.230;4.012;2022-09-09T05:56:09;9.63;;;1.80;;
23543;SDS011;11950;51.230;4.012;2022-09-09T05:58:37;6.18;;;1.38;;
23543;SDS011;11950;51.230;4.012;2022-09-09T06:01:07;7.20;;;1.45;;
23543;SDS011;11950;51.230;4.012;2022-09-09T06:03:36;8.18;;;1.13;;
23543;SDS011;11950;51.230;4.012;2022-09-09T06:06:06;6.35;;;1.73;;
23543;SDS011;11950;51.230;4.012;2022-09-09T06:08:34;7.97;;;1.92;;
23543;SDS011;11950;51.230;4.012;2022-09-09T06:11:07;6.55;;;1.40;;
23543;SDS011;11950;51.230;4.012;2022-09-09T06:13:35;8.52;;;1.70;;
23543;SDS011;11950;51.230;4.012;2022-09-09T06:16:08;10.83;;;1.80;;
23543;SDS011;11950;51.230;4.012;2022-09-09T06:18:38;5.47;;;1.42;;
23543;SDS011;11950;51.230;4.012;2022-09-09T06:21:06;8.90;;;2.60;;
23543;SDS011;11950;51.230;4.012;2022-09-09T06:23:36;7.80;;;1.73;;
23543;SDS011;11950;51.230;4.012;2022-09-09T06:26:11;9.88;;;1.60;;
23543;SDS011;11950;51.230;4.012;2022-09-09T06:28:44;7.00;;;1.98;;
23543;SDS011;11950;51.230;4.012;2022-09-09T06:31:12;8.05;;;1.63;;
23543;SDS011;11950;51.230;4.012;2022-09-09T06:33:41;6.35;;;1.55;;
23543;SDS011;11950;51.230;4.012;2022-09-09T06:36:12;8.20;;;1.40;;
23543;SDS011;11950;51.230;4.012;2022-09-09T06:38:41;8.63;;;1.83;;
23543;SDS011;11950;51.230;4.012;2022-09-09T06:41:10;8.93;;;1.55;;
23543;SDS011;11950;51.230;4.012;2022-09-09T06:43:38;4.63;;;1.50;;
23543;SDS011;11950;51.230;4.012;2022-09-09T06:46:06;9.48;;;1.73;;
23543;SDS011;11950;51.230;4.012;2022-09-09T06:48:41;10.95;;;2.22;;
23543;SDS011;11950;51.230;4.012;2022-09-09T06:51:11;11.05;;;1.83;;
23543;SDS011;11950;51.230;4.012;2022-09-09T06:53:44;6.72;;;1.80;;
23543;SDS011;11950;51.230;4.012;2022-09-09T06:56:24;6.65;;;1.50;;
23543;SDS011;11950;51.230;4.012;2022-09-09T06:58:58;6.32;;;2.25;;
23543;SDS011;11950;51.230;4.012;2022-09-09T07:01:30;8.25;;;1.40;;
23543;SDS011;11950;51.230;4.012;2022-09-09T07:04:04;8.60;;;1.50;;
23543;SDS011;11950;51.230;4.012;2022-09-09T07:06:36;10.60;;;2.08;;
23543;SDS011;11950;51.230;4.012;2022-09-09T07:09:06;7.80;;;1.48;;
23543;SDS011;11950;51.230;4.012;2022-09-09T07:11:47;6.22;;;1.33;;
23543;SDS011;11950;51.230;4.012;2022-09-09T07:16:46;4.80;;;1.15;;
23543;SDS011;11950;51.230;4.012;2022-09-09T07:19:14;10.52;;;2.40;;
23543;SDS011;11950;51.230;4.012;2022-09-09T07:21:42;5.75;;;1.73;;
23543;SDS011;11950;51.230;4.012;2022-09-09T07:24:12;10.18;;;1.40;;
23543;SDS011;11950;51.230;4.012;2022-09-09T07:26:41;7.88;;;1.50;;
23543;SDS011;11950;51.230;4.012;2022-09-09T07:29:07;6.47;;;1.30;;
23543;SDS011;11950;51.230;4.012;2022-09-09T07:31:35;7.07;;;1.70;;
23543;SDS011;11950;51.230;4.012;2022-09-09T07:34:06;10.55;;;1.30;;
23543;SDS011;11950;51.230;4.012;2022-09-09T07:36:35;5.15;;;1.38;;
23543;SDS011;11950;51.230;4.012;2022-09-09T07:39:08;12.13;;;1.70;;
23543;SDS011;11950;51.230;4.012;2022-09-09T07:41:41;7.72;;;1.42;;
23543;SDS011;11950;51.230;4.012;2022-09-09T07:44:11;7.82;;;1.60;;
23543;SDS011;11950;51.230;4.012;2022-09-09T07:46:40;4.50;;;1.43;;
23543;SDS011;11950;51.230;4.012;2022-09-09T07:49:09;7.95;;;1.50;;
23543;SDS011;11950;51.230;4.012;2022-09-09T07:51:38;8.07;;;1.60;;
23543;SDS011;11950;51.230;4.012;2022-09-09T07:54:08;5.60;;;1.35;;
23543;SDS011;11950;51.230;4.012;2022-09-09T07:56:39;8.98;;;1.38;;
23543;SDS011;11950;51.230;4.012;2022-09-09T07:59:07;10.65;;;1.70;;
23543;SDS011;11950;51.230;4.012;2022-09-09T08:01:37;8.25;;;1.23;;
23543;SDS011;11950;51.230;4.012;2022-09-09T08:04:11;7.25;;;1.23;;
23543;SDS011;11950;51.230;4.012;2022-09-09T08:06:42;8.45;;;1.27;;
23543;SDS011;11950;51.230;4.012;2022-09-09T08:09:09;6.85;;;1.27;;
23543;SDS011;11950;51.230;4.012;2022-09-09T08:11:38;7.03;;;1.27;;
23543;SDS011;11950;51.230;4.012;2022-09-09T08:14:05;9.70;;;1.33;;
23543;SDS011;11950;51.230;4.012;2022-09-09T08:16:43;7.07;;;1.45;;
23543;SDS011;11950;51.230;4.012;2022-09-09T08:19:13;6.28;;;1.50;;
23543;SDS011;11950;51.230;4.012;2022-09-09T08:24:11;9.07;;;1.27;;
23543;SDS011;11950;51.230;4.012;2022-09-09T08:26:42;8.68;;;1.10;;
23543;SDS011;11950;51.230;4.012;2022-09-09T08:29:11;4.90;;;1.38;;
23543;SDS011;11950;51.230;4.012;2022-09-09T08:31:40;4.45;;;1.00;;
23543;SDS011;11950;51.230;4.012;2022-09-09T08:34:11;8.13;;;1.30;;
23543;SDS011;11950;51.230;4.012;2022-09-09T08:36:39;3.25;;;1.10;;
23543;SDS011;11950;51.230;4.012;2022-09-09T08:39:08;7.35;;;1.23;;
23543;SDS011;11950;51.230;4.012;2022-09-09T08:42:37;4.10;;;1.00;;
23543;SDS011;11950;51.230;4.012;2022-09-09T08:52:40;2.55;;;0.90;;
23543;SDS011;11950;51.230;4.012;2022-09-09T08:58:44;3.22;;;1.02;;
23543;SDS011;11950;51.230;4.012;2022-09-09T09:06:51;6.97;;;1.65;;
23543;SDS011;11950;51.230;4.012;2022-09-09T09:12:37;4.03;;;1.02;;
23543;SDS011;11950;51.230;4.012;2022-09-09T09:15:16;5.45;;;0.93;;
23543;SDS011;11950;51.230;4.012;2022-09-09T09:17:46;5.10;;;1.08;;
23543;SDS011;11950;51.230;4.012;2022-09-09T09:20:15;6.63;;;1.13;;
23543;SDS011;11950;51.230;4.012;2022-09-09T09:22:51;4.35;;;1.10;;
23543;SDS011;11950;51.230;4.012;2022-09-09T09:25:24;6.32;;;1.25;;
23543;SDS011;11950;51.230;4.012;2022-09-09T09:28:10;6.22;;;1.30;;
23543;SDS011;11950;51.230;4.012;2022-09-09T09:33:22;3.50;;;1.30;;
23543;SDS011;11950;51.230;4.012;2022-09-09T09:35:50;2.50;;;1.00;;
23543;SDS011;11950;51.230;4.012;2022-09-09T09:38:19;1.92;;;1.10;;
23543;SDS011;11950;51.230;4.012;2022-09-09T09:40:52;2.40;;;1.00;;
23543;SDS011;11950;51.230;4.012;2022-09-09T09:43:28;2.60;;;1.00;;
23543;SDS011;11950;51.230;4.012;2022-09-09T09:45:57;3.25;;;1.10;;
23543;SDS011;11950;51.230;4.012;2022-09-09T09:48:25;5.93;;;1.50;;
23543;SDS011;11950;51.230;4.012;2022-09-09T09:50:57;3.33;;;1.10;;
23543;SDS011;11950;51.230;4.012;2022-09-09T09:53:47;4.57;;;1.17;;
23543;SDS011;11950;51.230;4.012;2022-09-09T09:56:16;4.40;;;1.17;;
23543;SDS011;11950;51.230;4.012;2022-09-09T09:58:51;8.02;;;1.40;;
23543;SDS011;11950;51.230;4.012;2022-09-09T10:01:26;3.17;;;0.90;;
23543;SDS011;11950;51.230;4.012;2022-09-09T10:04:15;3.42;;;1.00;;
23543;SDS011;11950;51.230;4.012;2022-09-09T10:06:48;4.57;;;1.00;;
23543;SDS011;11950;51.230;4.012;2022-09-09T10:09:28;4.85;;;1.08;;
23543;SDS011;11950;51.230;4.012;2022-09-09T10:17:32;2.55;;;0.90;;
23543;SDS011;11950;51.230;4.012;2022-09-09T10:20:10;3.63;;;0.90;;
23543;SDS011;11950;51.230;4.012;2022-09-09T10:23:06;3.63;;;1.00;;
23543;SDS011;11950;51.230;4.012;2022-09-09T10:26:00;6.95;;;1.35;;
23543;SDS011;11950;51.230;4.012;2022-09-09T10:28:46;4.88;;;0.90;;
23543;SDS011;11950;51.230;4.012;2022-09-09T10:36:57;6.78;;;1.00;;
23543;SDS011;11950;51.230;4.012;2022-09-09T10:39:39;3.10;;;0.98;;
23543;SDS011;11950;51.230;4.012;2022-09-09T10:42:07;5.47;;;0.90;;
23543;SDS011;11950;51.230;4.012;2022-09-09T10:52:49;2.58;;;0.90;;
23543;SDS011;11950;51.230;4.012;2022-09-09T10:57:54;3.97;;;0.80;;
23543;SDS011;11950;51.230;4.012;2022-09-09T11:00:23;3.28;;;0.93;;
23543;SDS011;11950;51.230;4.012;2022-09-09T11:03:01;7.35;;;1.00;;
23543;SDS011;11950;51.230;4.012;2022-09-09T11:05:31;3.25;;;0.90;;
23543;SDS011;11950;51.230;4.012;2022-09-09T11:08:20;4.38;;;1.10;;
23543;SDS011;11950;51.230;4.012;2022-09-09T11:13:32;3.33;;;0.80;;
23543;SDS011;11950;51.230;4.012;2022-09-09T11:16:05;1.50;;;0.90;;
23543;SDS011;11950;51.230;4.012;2022-09-09T11:18:37;7.78;;;0.98;;
23543;SDS011;11950;51.230;4.012;2022-09-09T11:21:08;3.72;;;0.70;;
23543;SDS011;11950;51.230;4.012;2022-09-09T11:26:27;3.22;;;1.30;;
23543;SDS011;11950;51.230;4.012;2022-09-09T11:40:23;2.22;;;0.70;;
23543;SDS011;11950;51.230;4.012;2022-09-09T11:45:40;3.63;;;1.02;;
23543;SDS011;11950;51.230;4.012;2022-09-09T11:51:13;4.05;;;0.68;;
23543;SDS011;11950;51.230;4.012;2022-09-09T11:53:53;1.83;;;0.70;;
23543;SDS011;11950;51.230;4.012;2022-09-09T11:56:25;3.47;;;0.70;;
23543;SDS011;11950;51.230;4.012;2022-09-09T11:59:20;3.30;;;0.82;;
23543;SDS011;11950;51.230;4.012;2022-09-09T12:02:30;1.58;;;0.60;;
23543;SDS011;11950;51.230;4.012;2022-09-09T12:04:39;3.67;;;0.80;;
23543;SDS011;11950;51.230;4.012;2022-09-09T12:09:52;3.10;;;0.80;;
23543;SDS011;11950;51.230;4.012;2022-09-09T12:17:42;4.60;;;0.60;;
23543;SDS011;11950;51.230;4.012;2022-09-09T12:20:33;3.28;;;0.50;;
23543;SDS011;11950;51.230;4.012;2022-09-09T12:26:01;3.63;;;1.02;;
23543;SDS011;11950;51.230;4.012;2022-09-09T12:34:11;2.30;;;0.57;;
23543;SDS011;11950;51.230;4.012;2022-09-09T12:36:58;2.35;;;0.50;;
23543;SDS011;11950;51.230;4.012;2022-09-09T12:39:38;3.08;;;0.55;;
23543;SDS011;11950;51.230;4.012;2022-09-09T12:42:17;4.75;;;0.60;;
23543;SDS011;11950;51.230;4.012;2022-09-09T12:44:55;4.47;;;0.70;;
23543;SDS011;11950;51.230;4.012;2022-09-09T12:50:14;2.53;;;0.80;;
23543;SDS011;11950;51.230;4.012;2022-09-09T12:52:43;3.08;;;0.63;;
23543;SDS011;11950;51.230;4.012;2022-09-09T12:55:18;3.63;;;0.70;;
23543;SDS011;11950;51.230;4.012;2022-09-09T12:57:47;4.13;;;0.73;;
23543;SDS011;11950;51.230;4.012;2022-09-09T13:00:19;2.78;;;0.95;;
23543;SDS011;11950;51.230;4.012;2022-09-09T13:02:55;0.50;;;0.50;;
23543;SDS011;11950;51.230;4.012;2022-09-09T13:05:26;3.65;;;0.70;;
23543;SDS011;11950;51.230;4.012;2022-09-09T13:08:05;5.05;;;1.05;;
23543;SDS011;11950;51.230;4.012;2022-09-09T13:10:44;6.30;;;0.98;;
23543;SDS011;11950;51.230;4.012;2022-09-09T13:13:33;6.97;;;0.90;;
23543;SDS011;11950;51.230;4.012;2022-09-09T13:16:01;2.83;;;0.80;;
23543;SDS011;11950;51.230;4.012;2022-09-09T13:18:31;2.53;;;1.00;;
23543;SDS011;11950;51.230;4.012;2022-09-09T13:21:01;4.28;;;1.00;;
23543;SDS011;11950;51.230;4.012;2022-09-09T13:23:31;4.65;;;1.13;;
23543;SDS011;11950;51.230;4.012;2022-09-09T13:26:01;4.55;;;1.40;;
23543;SDS011;11950;51.230;4.012;2022-09-09T13:28:44;7.22;;;1.20;;
23543;SDS011;11950;51.230;4.012;2022-09-09T13:34:11;7.32;;;1.50;;
23543;SDS011;11950;51.230;4.012;2022-09-09T13:37:02;7.63;;;1.65;;
23543;SDS011;11950;51.230;4.012;2022-09-09T13:39:40;5.32;;;1.52;;
23543;SDS011;11950;51.230;4.012;2022-09-09T13:42:27;4.68;;;1.40;;
23543;SDS011;11950;51.230;4.012;2022-09-09T13:44:55;2.30;;;1.50;;
23543;SDS011;11950;51.230;4.012;2022-09-09T13:47:26;2.97;;;1.25;;
23543;SDS011;11950;51.230;4.012;2022-09-09T13:50:20;7.13;;;1.10;;
23543;SDS011;11950;51.230;4.012;2022-09-09T13:52:52;5.30;;;1.17;;
23543;SDS011;11950;51.230;4.012;2022-09-09T13:55:20;3.35;;;1.50;;
23543;SDS011;11950;51.230;4.012;2022-09-09T13:57:54;3.50;;;1.50;;
23543;SDS011;11950;51.230;4.012;2022-09-09T14:00:22;3.10;;;1.50;;
23543;SDS011;11950;51.230;4.012;2022-09-09T14:02:50;6.97;;;2.20;;
23543;SDS011;11950;51.230;4.012;2022-09-09T14:05:17;6.53;;;3.08;;
23543;SDS011;11950;51.230;4.012;2022-09-09T14:07:44;10.77;;;3.35;;
23543;SDS011;11950;51.230;4.012;2022-09-09T14:10:11;6.57;;;3.90;;
23543;SDS011;11950;51.230;4.012;2022-09-09T14:12:37;8.82;;;3.70;;
23543;SDS011;11950;51.230;4.012;2022-09-09T14:15:04;11.20;;;4.88;;
23543;SDS011;11950;51.230;4.012;2022-09-09T14:17:32;12.60;;;3.85;;
23543;SDS011;11950;51.230;4.012;2022-09-09T14:19:59;5.78;;;2.25;;
23543;SDS011;11950;51.230;4.012;2022-09-09T14:22:26;6.38;;;2.33;;
23543;SDS011;11950;51.230;4.012;2022-09-09T14:24:53;3.90;;;1.40;;
23543;SDS011;11950;51.230;4.012;2022-09-09T14:27:20;6.22;;;1.40;;
23543;SDS011;11950;51.230;4.012;2022-09-09T14:29:46;5.68;;;1.17;;
23543;SDS011;11950;51.230;4.012;2022-09-09T14:32:12;3.20;;;1.00;;
23543;SDS011;11950;51.230;4.012;2022-09-09T14:34:39;3.28;;;1.10;;
23543;SDS011;11950;51.230;4.012;2022-09-09T14:37:06;2.67;;;0.90;;
23543;SDS011;11950;51.230;4.012;2022-09-09T14:39:32;2.78;;;0.90;;
23543;SDS011;11950;51.230;4.012;2022-09-09T14:41:59;1.70;;;1.00;;
23543;SDS011;11950;51.230;4.012;2022-09-09T14:44:25;4.57;;;1.25;;
23543;SDS011;11950;51.230;4.012;2022-09-09T14:46:51;2.78;;;1.20;;
23543;SDS011;11950;51.230;4.012;2022-09-09T14:49:18;4.03;;;1.65;;
23543;SDS011;11950;51.230;4.012;2022-09-09T14:51:45;4.97;;;1.83;;
23543;SDS011;11950;51.230;4.012;2022-09-09T14:54:11;4.75;;;2.40;;
23543;SDS011;11950;51.230;4.012;2022-09-09T14:56:38;5.32;;;2.70;;
23543;SDS011;11950;51.230;4.012;2022-09-09T14:59:04;4.15;;;2.80;;
23543;SDS011;11950;51.230;4.012;2022-09-09T15:01:31;4.78;;;2.97;;
23543;SDS011;11950;51.230;4.012;2022-09-09T15:06:29;5.60;;;3.67;;
23543;SDS011;11950;51.230;4.012;2022-09-09T15:08:58;7.00;;;2.90;;
23543;SDS011;11950;51.230;4.012;2022-09-09T15:11:26;3.25;;;1.92;;
23543;SDS011;11950;51.230;4.012;2022-09-09T15:13:55;3.15;;;1.85;;
23543;SDS011;11950;51.230;4.012;2022-09-09T15:16:23;3.90;;;1.70;;
23543;SDS011;11950;51.230;4.012;2022-09-09T15:18:53;2.53;;;1.40;;
23543;SDS011;11950;51.230;4.012;2022-09-09T15:21:22;3.38;;;2.10;;
23543;SDS011;11950;51.230;4.012;2022-09-09T15:23:50;3.00;;;1.90;;
23543;SDS011;11950;51.230;4.012;2022-09-09T15:26:17;4.55;;;1.50;;
23543;SDS011;11950;51.230;4.012;2022-09-09T15:28:44;4.70;;;2.20;;
23543;SDS011;11950;51.230;4.012;2022-09-09T15:31:17;5.05;;;1.98;;
23543;SDS011;11950;51.230;4.012;2022-09-09T15:33:57;5.53;;;1.90;;
23543;SDS011;11950;51.230;4.012;2022-09-09T15:38:58;2.53;;;1.67;;
23543;SDS011;11950;51.230;4.012;2022-09-09T15:41:25;3.78;;;1.52;;
23543;SDS011;11950;51.230;4.012;2022-09-09T15:43:52;3.97;;;1.55;;
23543;SDS011;11950;51.230;4.012;2022-09-09T15:49:02;5.57;;;2.10;;
23543;SDS011;11950;51.230;4.012;2022-09-09T15:51:44;1.95;;;1.77;;
23543;SDS011;11950;51.230;4.012;2022-09-09T15:54:13;2.72;;;1.90;;
23543;SDS011;11950;51.230;4.012;2022-09-09T15:56:43;3.97;;;1.73;;
23543;SDS011;11950;51.230;4.012;2022-09-09T15:59:11;5.72;;;2.00;;
23543;SDS011;11950;51.230;4.012;2022-09-09T16:01:37;4.45;;;1.95;;
23543;SDS011;11950;51.230;4.012;2022-09-09T16:04:05;6.75;;;1.95;;
23543;SDS011;11950;51.230;4.012;2022-09-09T16:06:31;4.18;;;2.22;;
23543;SDS011;11950;51.230;4.012;2022-09-09T16:08:59;4.40;;;2.40;;
23543;SDS011;11950;51.230;4.012;2022-09-09T16:11:29;5.93;;;2.10;;
23543;SDS011;11950;51.230;4.012;2022-09-09T16:14:00;4.95;;;1.80;;
23543;SDS011;11950;51.230;4.012;2022-09-09T16:16:28;5.35;;;2.28;;
23543;SDS011;11950;51.230;4.012;2022-09-09T16:18:59;3.97;;;2.17;;
23543;SDS011;11950;51.230;4.012;2022-09-09T16:21:27;3.10;;;1.70;;
23543;SDS011;11950;51.230;4.012;2022-09-09T16:23:56;4.32;;;2.38;;
23543;SDS011;11950;51.230;4.012;2022-09-09T16:26:28;4.25;;;2.03;;
23543;SDS011;11950;51.230;4.012;2022-09-09T16:28:56;4.50;;;2.38;;
23543;SDS011;11950;51.230;4.012;2022-09-09T16:31:24;6.40;;;2.42;;
23543;SDS011;11950;51.230;4.012;2022-09-09T16:33:52;8.73;;;2.03;;
23543;SDS011;11950;51.230;4.012;2022-09-09T16:36:19;7.13;;;2.33;;
23543;SDS011;11950;51.230;4.012;2022-09-09T16:38:47;3.50;;;2.47;;
23543;SDS011;11950;51.230;4.012;2022-09-09T16:41:13;5.10;;;3.00;;
23543;SDS011;11950;51.230;4.012;2022-09-09T16:43:40;4.97;;;2.90;;
23543;SDS011;11950;51.230;4.012;2022-09-09T16:46:11;4.68;;;3.55;;
23543;SDS011;11950;51.230;4.012;2022-09-09T16:48:42;6.28;;;3.10;;
23543;SDS011;11950;51.230;4.012;2022-09-09T16:51:20;5.63;;;2.50;;
23543;SDS011;11950;51.230;4.012;2022-09-09T16:53:46;4.40;;;2.40;;
23543;SDS011;11950;51.230;4.012;2022-09-09T16:56:14;4.13;;;2.00;;
23543;SDS011;11950;51.230;4.012;2022-09-09T16:58:42;4.93;;;2.20;;
23543;SDS011;11950;51.230;4.012;2022-09-09T17:01:10;2.95;;;1.80;;
23543;SDS011;11950;51.230;4.012;2022-09-09T17:03:40;2.28;;;1.70;;
23543;SDS011;11950;51.230;4.012;2022-09-09T17:06:10;2.13;;;1.65;;
23543;SDS011;11950;51.230;4.012;2022-09-09T17:08:40;4.05;;;1.90;;
23543;SDS011;11950;51.230;4.012;2022-09-09T17:11:11;6.13;;;2.33;;
23543;SDS011;11950;51.230;4.012;2022-09-09T17:13:40;5.10;;;1.90;;
23543;SDS011;11950;51.230;4.012;2022-09-09T17:16:07;4.82;;;2.03;;
23543;SDS011;11950;51.230;4.012;2022-09-09T17:18:35;4.60;;;2.20;;
23543;SDS011;11950;51.230;4.012;2022-09-09T17:21:05;5.05;;;2.33;;
23543;SDS011;11950;51.230;4.012;2022-09-09T17:23:34;4.78;;;2.35;;
23543;SDS011;11950;51.230;4.012;2022-09-09T17:26:03;4.10;;;2.33;;
23543;SDS011;11950;51.230;4.012;2022-09-09T17:28:35;5.30;;;2.40;;
23543;SDS011;11950;51.230;4.012;2022-09-09T17:31:04;5.57;;;2.65;;
23543;SDS011;11950;51.230;4.012;2022-09-09T17:33:32;4.07;;;3.30;;
23543;SDS011;11950;51.230;4.012;2022-09-09T17:36:01;4.18;;;2.53;;
23543;SDS011;11950;51.230;4.012;2022-09-09T17:38:39;7.40;;;2.95;;
23543;SDS011;11950;51.230;4.012;2022-09-09T17:41:09;5.22;;;2.70;;
23543;SDS011;11950;51.230;4.012;2022-09-09T17:43:39;6.90;;;3.05;;
23543;SDS011;11950;51.230;4.012;2022-09-09T17:46:06;5.78;;;2.70;;
23543;SDS011;11950;51.230;4.012;2022-09-09T17:48:40;6.85;;;3.80;;